sensor_id;sensor_type;location;lat;lon;timestamp;pressure;altitude;pressure_sealevel;temperature;humidity
50682;BME280;36779;52.168;20.878;2022-07-18T00:01:02;101283.50;;;12.55;58.59
50682;BME280;36779;52.168;20.878;2022-07-18T00:03:34;101283.32;;;12.54;58.89
50682;BME280;36779;52.168;20.878;2022-07-18T00:06:09;101288.92;;;12.49;58.91
50682;BME280;36779;52.168;20.878;2022-07-18T00:08:41;101288.34;;;12.44;58.89
50682;BME280;36779;52.168;20.878;2022-07-18T00:11:14;101288.94;;;12.44;58.97
50682;BME280;36779;52.168;20.878;2022-07-18T00:13:47;101286.37;;;12.37;58.85
50682;BME280;36779;52.168;20.878;2022-07-18T00:16:21;101286.63;;;12.29;58.80
50682;BME280;36779;52.168;20.878;2022-07-18T00:18:57;101289.15;;;12.29;59.14
50682;BME280;36779;52.168;20.878;2022-07-18T00:21:30;101287.70;;;12.24;58.92
50682;BME280;36779;52.168;20.878;2022-07-18T00:24:03;101288.77;;;12.21;59.13
50682;BME280;36779;52.168;20.878;2022-07-18T00:26:36;101289.07;;;12.18;59.20
50682;BME280;36779;52.168;20.878;2022-07-18T00:29:08;101290.41;;;12.18;59.21
50682;BME280;36779;52.168;20.878;2022-07-18T00:31:41;101287.00;;;12.15;59.43
50682;BME280;36779;52.168;20.878;2022-07-18T00:34:13;101285.53;;;12.19;59.50
50682;BME280;36779;52.168;20.878;2022-07-18T00:36:44;101283.48;;;12.14;59.37
50682;BME280;36779;52.168;20.878;2022-07-18T00:39:16;101285.09;;;12.05;59.37
50682;BME280;36779;52.168;20.878;2022-07-18T00:41:49;101284.31;;;12.02;59.42
50682;BME280;36779;52.168;20.878;2022-07-18T00:44:22;101281.70;;;11.97;59.49
50682;BME280;36779;52.168;20.878;2022-07-18T00:46:57;101283.42;;;11.98;59.65
50682;BME280;36779;52.168;20.878;2022-07-18T00:49:30;101283.17;;;11.90;59.71
50682;BME280;36779;52.168;20.878;2022-07-18T00:52:02;101281.73;;;11.86;59.68
50682;BME280;36779;52.168;20.878;2022-07-18T00:54:35;101278.77;;;11.84;59.70
50682;BME280;36779;52.168;20.878;2022-07-18T00:57:07;101278.77;;;11.86;59.64
50682;BME280;36779;52.168;20.878;2022-07-18T00:59:39;101281.09;;;11.84;59.78
50682;BME280;36779;52.168;20.878;2022-07-18T01:02:30;101278.11;;;11.83;59.95
50682;BME280;36779;52.168;20.878;2022-07-18T01:05:02;101280.52;;;11.88;60.11
50682;BME280;36779;52.168;20.878;2022-07-18T01:07:34;101280.91;;;11.86;60.01
50682;BME280;36779;52.168;20.878;2022-07-18T01:10:08;101279.58;;;11.77;59.97
50682;BME280;36779;52.168;20.878;2022-07-18T01:12:40;101280.14;;;11.69;59.86
50682;BME280;36779;52.168;20.878;2022-07-18T01:15:13;101282.30;;;11.65;59.98
50682;BME280;36779;52.168;20.878;2022-07-18T01:17:45;101279.29;;;11.62;60.04
50682;BME280;36779;52.168;20.878;2022-07-18T01:20:17;101283.20;;;11.58;60.07
50682;BME280;36779;52.168;20.878;2022-07-18T01:22:49;101291.80;;;11.53;60.23
50682;BME280;36779;52.168;20.878;2022-07-18T01:25:23;101292.06;;;11.51;60.16
50682;BME280;36779;52.168;20.878;2022-07-18T01:27:57;101297.55;;;11.47;60.26
50682;BME280;36779;52.168;20.878;2022-07-18T01:30:29;101302.58;;;11.45;60.14
50682;BME280;36779;52.168;20.878;2022-07-18T01:33:02;101303.96;;;11.45;60.39
50682;BME280;36779;52.168;20.878;2022-07-18T01:35:35;101303.90;;;11.46;60.38
50682;BME280;36779;52.168;20.878;2022-07-18T01:38:07;101304.58;;;11.44;60.33
50682;BME280;36779;52.168;20.878;2022-07-18T01:40:39;101305.64;;;11.41;60.28
50682;BME280;36779;52.168;20.878;2022-07-18T01:43:11;101300.41;;;11.40;60.51
50682;BME280;36779;52.168;20.878;2022-07-18T01:45:43;101297.12;;;11.42;60.56
50682;BME280;36779;52.168;20.878;2022-07-18T01:48:15;101296.95;;;11.43;60.74
50682;BME280;36779;52.168;20.878;2022-07-18T01:50:47;101299.97;;;11.41;60.54
50682;BME280;36779;52.168;20.878;2022-07-18T01:53:20;101297.25;;;11.38;60.78
50682;BME280;36779;52.168;20.878;2022-07-18T01:55:52;101298.25;;;11.35;60.72
50682;BME280;36779;52.168;20.878;2022-07-18T01:58:25;101297.77;;;11.34;60.73
50682;BME280;36779;52.168;20.878;2022-07-18T02:00:58;101297.55;;;11.36;60.82
50682;BME280;36779;52.168;20.878;2022-07-18T02:03:30;101303.37;;;11.37;60.81
50682;BME280;36779;52.168;20.878;2022-07-18T02:06:02;101306.44;;;11.35;60.79
50682;BME280;36779;52.168;20.878;2022-07-18T02:08:34;101310.76;;;11.30;60.84
50682;BME280;36779;52.168;20.878;2022-07-18T02:11:06;101307.43;;;11.26;60.94
50682;BME280;36779;52.168;20.878;2022-07-18T02:13:39;101305.77;;;11.23;61.01
50682;BME280;36779;52.168;20.878;2022-07-18T02:16:12;101310.27;;;11.20;61.00
50682;BME280;36779;52.168;20.878;2022-07-18T02:18:47;101312.74;;;11.18;60.87
50682;BME280;36779;52.168;20.878;2022-07-18T02:21:19;101311.61;;;11.17;61.07
50682;BME280;36779;52.168;20.878;2022-07-18T02:23:51;101312.87;;;11.17;61.08
50682;BME280;36779;52.168;20.878;2022-07-18T02:26:25;101316.13;;;11.15;61.17
50682;BME280;36779;52.168;20.878;2022-07-18T02:28:57;101318.28;;;11.13;61.21
50682;BME280;36779;52.168;20.878;2022-07-18T02:31:29;101317.84;;;11.11;61.20
50682;BME280;36779;52.168;20.878;2022-07-18T02:34:02;101317.05;;;11.12;61.30
50682;BME280;36779;52.168;20.878;2022-07-18T02:36:41;101314.16;;;11.11;61.31
50682;BME280;36779;52.168;20.878;2022-07-18T02:39:13;101315.91;;;11.07;61.25
50682;BME280;36779;52.168;20.878;2022-07-18T02:41:45;101321.35;;;11.08;61.41
50682;BME280;36779;52.168;20.878;2022-07-18T02:44:18;101320.23;;;11.08;61.41
50682;BME280;36779;52.168;20.878;2022-07-18T02:46:49;101321.59;;;11.05;61.53
50682;BME280;36779;52.168;20.878;2022-07-18T02:49:23;101318.25;;;11.01;61.46
50682;BME280;36779;52.168;20.878;2022-07-18T02:51:59;101316.00;;;10.99;61.47
50682;BME280;36779;52.168;20.878;2022-07-18T02:54:33;101315.08;;;10.99;61.75
50682;BME280;36779;52.168;20.878;2022-07-18T02:57:06;101314.55;;;11.01;61.66
50682;BME280;36779;52.168;20.878;2022-07-18T02:59:38;101317.80;;;10.98;61.70
50682;BME280;36779;52.168;20.878;2022-07-18T03:02:10;101320.39;;;10.99;61.76
50682;BME280;36779;52.168;20.878;2022-07-18T03:04:42;101318.16;;;11.00;61.75
50682;BME280;36779;52.168;20.878;2022-07-18T03:07:14;101319.31;;;11.01;61.82
50682;BME280;36779;52.168;20.878;2022-07-18T03:09:46;101321.52;;;11.02;62.04
50682;BME280;36779;52.168;20.878;2022-07-18T03:12:18;101321.70;;;11.04;61.91
50682;BME280;36779;52.168;20.878;2022-07-18T03:14:50;101321.14;;;11.02;61.99
50682;BME280;36779;52.168;20.878;2022-07-18T03:17:23;101323.10;;;11.04;61.96
50682;BME280;36779;52.168;20.878;2022-07-18T03:19:55;101324.62;;;11.05;62.26
50682;BME280;36779;52.168;20.878;2022-07-18T03:22:27;101324.70;;;11.12;62.19
50682;BME280;36779;52.168;20.878;2022-07-18T03:24:59;101327.66;;;11.18;62.16
50682;BME280;36779;52.168;20.878;2022-07-18T03:27:31;101321.83;;;11.26;62.35
50682;BME280;36779;52.168;20.878;2022-07-18T03:30:04;101321.95;;;11.34;62.47
50682;BME280;36779;52.168;20.878;2022-07-18T03:32:36;101323.05;;;11.43;62.52
50682;BME280;36779;52.168;20.878;2022-07-18T03:35:09;101327.56;;;11.50;62.48
50682;BME280;36779;52.168;20.878;2022-07-18T03:37:41;101329.66;;;11.56;62.52
50682;BME280;36779;52.168;20.878;2022-07-18T03:40:13;101329.09;;;11.62;62.65
50682;BME280;36779;52.168;20.878;2022-07-18T03:42:45;101331.88;;;11.70;62.52
50682;BME280;36779;52.168;20.878;2022-07-18T03:45:17;101329.03;;;11.81;62.79
50682;BME280;36779;52.168;20.878;2022-07-18T03:47:49;101327.60;;;11.91;62.86
50682;BME280;36779;52.168;20.878;2022-07-18T03:50:21;101326.81;;;11.97;62.73
50682;BME280;36779;52.168;20.878;2022-07-18T03:52:58;101327.33;;;12.01;62.78
50682;BME280;36779;52.168;20.878;2022-07-18T03:55:30;101333.55;;;12.09;62.64
50682;BME280;36779;52.168;20.878;2022-07-18T03:58:02;101338.23;;;12.17;62.81
50682;BME280;36779;52.168;20.878;2022-07-18T04:00:34;101339.52;;;12.24;62.88
50682;BME280;36779;52.168;20.878;2022-07-18T04:03:06;101338.30;;;12.31;62.93
50682;BME280;36779;52.168;20.878;2022-07-18T04:05:38;101340.23;;;12.39;62.83
50682;BME280;36779;52.168;20.878;2022-07-18T04:08:11;101341.52;;;12.45;62.95
50682;BME280;36779;52.168;20.878;2022-07-18T04:10:43;101338.10;;;12.50;62.69
50682;BME280;36779;52.168;20.878;2022-07-18T04:13:15;101337.35;;;12.52;62.90
50682;BME280;36779;52.168;20.878;2022-07-18T04:15:47;101343.36;;;12.54;62.85
50682;BME280;36779;52.168;20.878;2022-07-18T04:18:19;101343.26;;;12.57;62.65
50682;BME280;36779;52.168;20.878;2022-07-18T04:20:51;101343.64;;;12.62;62.68
50682;BME280;36779;52.168;20.878;2022-07-18T04:23:24;101341.06;;;12.68;62.77
50682;BME280;36779;52.168;20.878;2022-07-18T04:25:57;101339.48;;;12.75;62.72
50682;BME280;36779;52.168;20.878;2022-07-18T04:28:30;101338.24;;;12.82;62.80
50682;BME280;36779;52.168;20.878;2022-07-18T04:31:02;101336.98;;;12.91;62.88
50682;BME280;36779;52.168;20.878;2022-07-18T04:33:34;101336.78;;;13.02;63.15
50682;BME280;36779;52.168;20.878;2022-07-18T04:36:13;101334.36;;;13.10;62.92
50682;BME280;36779;52.168;20.878;2022-07-18T04:38:45;101329.34;;;13.17;62.79
50682;BME280;36779;52.168;20.878;2022-07-18T04:41:18;101331.76;;;13.26;62.81
50682;BME280;36779;52.168;20.878;2022-07-18T04:43:53;101329.68;;;13.33;62.65
50682;BME280;36779;52.168;20.878;2022-07-18T04:46:27;101332.90;;;13.40;62.91
50682;BME280;36779;52.168;20.878;2022-07-18T04:49:00;101332.73;;;13.49;62.88
50682;BME280;36779;52.168;20.878;2022-07-18T04:51:34;101333.83;;;13.59;62.74
50682;BME280;36779;52.168;20.878;2022-07-18T04:54:06;101333.34;;;13.71;63.11
50682;BME280;36779;52.168;20.878;2022-07-18T04:56:38;101334.21;;;13.83;63.02
50682;BME280;36779;52.168;20.878;2022-07-18T04:59:10;101328.80;;;13.94;62.85
50682;BME280;36779;52.168;20.878;2022-07-18T05:01:42;101332.41;;;14.07;62.99
50682;BME280;36779;52.168;20.878;2022-07-18T05:04:14;101337.38;;;14.19;62.79
50682;BME280;36779;52.168;20.878;2022-07-18T05:06:47;101340.06;;;14.31;62.87
50682;BME280;36779;52.168;20.878;2022-07-18T05:09:18;101339.59;;;14.42;63.07
50682;BME280;36779;52.168;20.878;2022-07-18T05:11:51;101340.48;;;14.56;62.89
50682;BME280;36779;52.168;20.878;2022-07-18T05:14:25;101342.41;;;14.67;63.17
50682;BME280;36779;52.168;20.878;2022-07-18T05:16:57;101339.32;;;14.80;62.81
50682;BME280;36779;52.168;20.878;2022-07-18T05:19:30;101338.30;;;14.89;62.58
50682;BME280;36779;52.168;20.878;2022-07-18T05:22:02;101344.66;;;14.99;62.76
50682;BME280;36779;52.168;20.878;2022-07-18T05:24:34;101344.05;;;15.13;62.90
50682;BME280;36779;52.168;20.878;2022-07-18T05:27:06;101341.96;;;15.26;62.68
50682;BME280;36779;52.168;20.878;2022-07-18T05:29:38;101341.41;;;15.37;62.87
50682;BME280;36779;52.168;20.878;2022-07-18T05:32:10;101343.40;;;15.46;62.57
50682;BME280;36779;52.168;20.878;2022-07-18T05:34:49;101339.91;;;15.54;62.48
50682;BME280;36779;52.168;20.878;2022-07-18T05:37:21;101337.94;;;15.60;62.57
50682;BME280;36779;52.168;20.878;2022-07-18T05:39:53;101339.19;;;15.70;62.46
50682;BME280;36779;52.168;20.878;2022-07-18T05:42:25;101337.63;;;15.82;62.42
50682;BME280;36779;52.168;20.878;2022-07-18T05:45:17;101338.86;;;16.05;62.51
50682;BME280;36779;52.168;20.878;2022-07-18T05:47:49;101338.98;;;16.41;62.92
50682;BME280;36779;52.168;20.878;2022-07-18T05:50:24;101338.52;;;16.82;62.81
50682;BME280;36779;52.168;20.878;2022-07-18T05:52:56;101339.16;;;17.12;62.51
50682;BME280;36779;52.168;20.878;2022-07-18T05:55:28;101336.25;;;17.22;62.16
50682;BME280;36779;52.168;20.878;2022-07-18T05:58:00;101338.36;;;17.25;62.05
50682;BME280;36779;52.168;20.878;2022-07-18T06:00:33;101339.52;;;17.27;61.78
50682;BME280;36779;52.168;20.878;2022-07-18T06:03:05;101337.88;;;17.38;62.00
50682;BME280;36779;52.168;20.878;2022-07-18T06:05:38;101336.96;;;17.54;62.16
50682;BME280;36779;52.168;20.878;2022-07-18T06:08:10;101335.88;;;17.65;61.74
50682;BME280;36779;52.168;20.878;2022-07-18T06:10:42;101335.65;;;17.61;61.54
50682;BME280;36779;52.168;20.878;2022-07-18T06:13:16;101335.23;;;17.61;61.44
50682;BME280;36779;52.168;20.878;2022-07-18T06:15:48;101339.18;;;17.70;61.54
50682;BME280;36779;52.168;20.878;2022-07-18T06:18:20;101336.91;;;17.77;61.38
50682;BME280;36779;52.168;20.878;2022-07-18T06:20:52;101339.76;;;17.85;61.39
50682;BME280;36779;52.168;20.878;2022-07-18T06:23:25;101337.69;;;17.95;61.47
50682;BME280;36779;52.168;20.878;2022-07-18T06:25:57;101335.11;;;18.01;61.24
50682;BME280;36779;52.168;20.878;2022-07-18T06:28:29;101338.20;;;17.96;60.90
50682;BME280;36779;52.168;20.878;2022-07-18T06:31:02;101336.52;;;17.85;60.68
50682;BME280;36779;52.168;20.878;2022-07-18T06:33:34;101339.10;;;17.80;60.75
50682;BME280;36779;52.168;20.878;2022-07-18T06:36:09;101335.34;;;17.74;60.63
50682;BME280;36779;52.168;20.878;2022-07-18T06:38:43;101336.65;;;17.70;60.59
50682;BME280;36779;52.168;20.878;2022-07-18T06:41:16;101336.88;;;17.69;60.66
50682;BME280;36779;52.168;20.878;2022-07-18T06:43:48;101335.80;;;17.71;60.71
50682;BME280;36779;52.168;20.878;2022-07-18T06:46:23;101335.77;;;17.76;60.86
50682;BME280;36779;52.168;20.878;2022-07-18T06:48:55;101333.35;;;17.87;60.88
50682;BME280;36779;52.168;20.878;2022-07-18T06:51:27;101328.52;;;17.95;60.71
50682;BME280;36779;52.168;20.878;2022-07-18T06:54:00;101326.41;;;17.98;60.64
50682;BME280;36779;52.168;20.878;2022-07-18T06:56:35;101326.27;;;18.04;60.56
50682;BME280;36779;52.168;20.878;2022-07-18T06:59:06;101324.37;;;18.12;60.64
50682;BME280;36779;52.168;20.878;2022-07-18T07:01:38;101323.52;;;18.16;60.38
50682;BME280;36779;52.168;20.878;2022-07-18T07:04:11;101327.09;;;18.20;60.35
50682;BME280;36779;52.168;20.878;2022-07-18T07:06:43;101324.28;;;18.22;60.16
50682;BME280;36779;52.168;20.878;2022-07-18T07:09:15;101325.02;;;18.24;60.13
50682;BME280;36779;52.168;20.878;2022-07-18T07:11:47;101325.55;;;18.33;60.23
50682;BME280;36779;52.168;20.878;2022-07-18T07:14:20;101324.91;;;18.44;60.41
50682;BME280;36779;52.168;20.878;2022-07-18T07:16:51;101326.79;;;18.61;60.33
50682;BME280;36779;52.168;20.878;2022-07-18T07:19:24;101324.08;;;18.77;60.28
50682;BME280;36779;52.168;20.878;2022-07-18T07:21:57;101320.20;;;18.94;60.37
50682;BME280;36779;52.168;20.878;2022-07-18T07:24:29;101319.85;;;19.12;60.29
50682;BME280;36779;52.168;20.878;2022-07-18T07:27:01;101324.12;;;19.26;60.10
50682;BME280;36779;52.168;20.878;2022-07-18T07:29:33;101322.20;;;19.37;60.07
50682;BME280;36779;52.168;20.878;2022-07-18T07:32:06;101325.73;;;19.49;59.99
50682;BME280;36779;52.168;20.878;2022-07-18T07:34:38;101327.65;;;19.62;59.93
50682;BME280;36779;52.168;20.878;2022-07-18T07:37:10;101329.45;;;19.74;59.85
50682;BME280;36779;52.168;20.878;2022-07-18T07:39:42;101331.52;;;19.79;59.54
50682;BME280;36779;52.168;20.878;2022-07-18T07:42:14;101330.08;;;19.82;59.46
50682;BME280;36779;52.168;20.878;2022-07-18T07:44:47;101327.02;;;19.85;59.32
50682;BME280;36779;52.168;20.878;2022-07-18T07:47:18;101325.98;;;19.84;59.20
50682;BME280;36779;52.168;20.878;2022-07-18T07:49:51;101324.59;;;19.92;59.29
50682;BME280;36779;52.168;20.878;2022-07-18T07:52:25;101325.89;;;20.02;59.32
50682;BME280;36779;52.168;20.878;2022-07-18T07:54:59;101325.66;;;20.08;59.12
50682;BME280;36779;52.168;20.878;2022-07-18T07:57:31;101322.40;;;20.13;59.24
50682;BME280;36779;52.168;20.878;2022-07-18T08:00:08;101315.80;;;20.20;59.26
50682;BME280;36779;52.168;20.878;2022-07-18T08:02:54;101319.83;;;20.30;59.16
50682;BME280;36779;52.168;20.878;2022-07-18T08:05:31;101316.96;;;20.30;58.91
50682;BME280;36779;52.168;20.878;2022-07-18T08:08:04;101314.91;;;20.30;58.76
50682;BME280;36779;52.168;20.878;2022-07-18T08:10:36;101317.70;;;20.27;58.73
50682;BME280;36779;52.168;20.878;2022-07-18T08:13:14;101314.80;;;20.26;58.70
50682;BME280;36779;52.168;20.878;2022-07-18T08:15:46;101318.41;;;20.27;58.72
50682;BME280;36779;52.168;20.878;2022-07-18T08:18:18;101320.84;;;20.30;58.73
50682;BME280;36779;52.168;20.878;2022-07-18T08:20:50;101321.40;;;20.38;58.80
50682;BME280;36779;52.168;20.878;2022-07-18T08:23:22;101323.48;;;20.40;58.53
50682;BME280;36779;52.168;20.878;2022-07-18T08:25:55;101324.55;;;20.39;58.43
50682;BME280;36779;52.168;20.878;2022-07-18T08:28:27;101323.32;;;20.39;58.44
50682;BME280;36779;52.168;20.878;2022-07-18T08:31:00;101321.98;;;20.50;58.60
50682;BME280;36779;52.168;20.878;2022-07-18T08:33:31;101318.98;;;20.66;58.68
50682;BME280;36779;52.168;20.878;2022-07-18T08:36:04;101320.76;;;20.85;58.71
50682;BME280;36779;52.168;20.878;2022-07-18T08:46:20;101322.15;;;21.32;58.28
50682;BME280;36779;52.168;20.878;2022-07-18T08:48:53;101321.45;;;21.40;58.16
50682;BME280;36779;52.168;20.878;2022-07-18T08:51:27;101322.63;;;21.55;58.16
50682;BME280;36779;52.168;20.878;2022-07-18T08:54:00;101324.52;;;21.69;58.08
50682;BME280;36779;52.168;20.878;2022-07-18T08:56:33;101316.84;;;21.81;57.93
50682;BME280;36779;52.168;20.878;2022-07-18T08:59:05;101321.65;;;21.91;57.70
50682;BME280;36779;52.168;20.878;2022-07-18T09:01:38;101315.30;;;22.01;57.69
50682;BME280;36779;52.168;20.878;2022-07-18T09:04:10;101318.11;;;22.09;57.48
50682;BME280;36779;52.168;20.878;2022-07-18T09:06:51;101311.83;;;22.19;57.66
50682;BME280;36779;52.168;20.878;2022-07-18T09:09:24;101308.77;;;22.51;57.92
50682;BME280;36779;52.168;20.878;2022-07-18T09:12:02;101303.97;;;22.87;57.73
50682;BME280;36779;52.168;20.878;2022-07-18T09:14:37;101305.83;;;23.17;57.69
50682;BME280;36779;52.168;20.878;2022-07-18T09:17:12;101304.73;;;23.51;57.50
50682;BME280;36779;52.168;20.878;2022-07-18T09:19:57;101301.19;;;23.67;57.03
50682;BME280;36779;52.168;20.878;2022-07-18T09:22:31;101295.21;;;23.75;56.81
50682;BME280;36779;52.168;20.878;2022-07-18T09:25:06;101298.85;;;23.92;56.72
50682;BME280;36779;52.168;20.878;2022-07-18T09:27:40;101302.38;;;24.10;56.73
50682;BME280;36779;52.168;20.878;2022-07-18T09:30:25;101303.91;;;24.32;56.59
50682;BME280;36779;52.168;20.878;2022-07-18T09:33:07;101300.61;;;24.51;56.30
50682;BME280;36779;52.168;20.878;2022-07-18T09:35:46;101300.17;;;24.46;55.68
50682;BME280;36779;52.168;20.878;2022-07-18T09:38:17;101300.03;;;24.39;55.63
50682;BME280;36779;52.168;20.878;2022-07-18T09:40:52;101297.23;;;24.43;55.72
50682;BME280;36779;52.168;20.878;2022-07-18T09:43:26;101293.79;;;24.55;55.77
50682;BME280;36779;52.168;20.878;2022-07-18T09:45:58;101294.11;;;24.72;55.79
50682;BME280;36779;52.168;20.878;2022-07-18T09:48:35;101296.92;;;24.95;55.92
50682;BME280;36779;52.168;20.878;2022-07-18T09:51:09;101289.36;;;25.12;55.38
50682;BME280;36779;52.168;20.878;2022-07-18T09:53:43;101283.49;;;25.05;54.87
50682;BME280;36779;52.168;20.878;2022-07-18T09:56:24;101290.77;;;25.02;54.88
50682;BME280;36779;52.168;20.878;2022-07-18T09:58:57;101297.16;;;24.91;54.46
50682;BME280;36779;52.168;20.878;2022-07-18T10:01:32;101293.34;;;24.73;54.27
50682;BME280;36779;52.168;20.878;2022-07-18T10:04:06;101288.27;;;24.62;54.41
50682;BME280;36779;52.168;20.878;2022-07-18T10:06:37;101289.73;;;24.75;54.51
50682;BME280;36779;52.168;20.878;2022-07-18T10:09:13;101293.38;;;24.84;54.40
50682;BME280;36779;52.168;20.878;2022-07-18T10:11:45;101296.57;;;25.00;54.77
50682;BME280;36779;52.168;20.878;2022-07-18T10:14:17;101300.37;;;25.26;54.72
50682;BME280;36779;52.168;20.878;2022-07-18T10:16:50;101298.31;;;25.59;54.78
50682;BME280;36779;52.168;20.878;2022-07-18T10:19:22;101294.80;;;25.95;54.83
50682;BME280;36779;52.168;20.878;2022-07-18T10:21:57;101295.49;;;26.19;54.20
50682;BME280;36779;52.168;20.878;2022-07-18T10:24:30;101297.19;;;26.34;54.02
50682;BME280;36779;52.168;20.878;2022-07-18T10:27:16;101298.77;;;26.33;53.50
50682;BME280;36779;52.168;20.878;2022-07-18T10:30:10;101298.09;;;26.41;53.71
50682;BME280;36779;52.168;20.878;2022-07-18T10:32:42;101295.67;;;26.58;53.54
50682;BME280;36779;52.168;20.878;2022-07-18T10:35:17;101298.23;;;26.66;53.39
50682;BME280;36779;52.168;20.878;2022-07-18T10:37:49;101297.14;;;26.85;53.35
50682;BME280;36779;52.168;20.878;2022-07-18T10:40:28;101290.59;;;26.87;52.92
50682;BME280;36779;52.168;20.878;2022-07-18T10:46:15;101291.16;;;26.56;52.23
50682;BME280;36779;52.168;20.878;2022-07-18T10:48:56;101287.44;;;26.49;52.53
50682;BME280;36779;52.168;20.878;2022-07-18T10:51:34;101286.02;;;26.65;52.78
50682;BME280;36779;52.168;20.878;2022-07-18T10:54:11;101289.12;;;26.81;52.67
50682;BME280;36779;52.168;20.878;2022-07-18T10:57:08;101286.98;;;26.87;52.26
50682;BME280;36779;52.168;20.878;2022-07-18T10:59:59;101289.44;;;26.70;51.72
50682;BME280;36779;52.168;20.878;2022-07-18T11:02:36;101285.75;;;26.50;51.82
50682;BME280;36779;52.168;20.878;2022-07-18T11:05:35;101284.48;;;26.52;52.10
50682;BME280;36779;52.168;20.878;2022-07-18T11:08:21;101282.90;;;26.74;52.24
50682;BME280;36779;52.168;20.878;2022-07-18T11:11:21;101276.15;;;26.82;51.95
50682;BME280;36779;52.168;20.878;2022-07-18T11:13:53;101279.35;;;26.95;51.95
50682;BME280;36779;52.168;20.878;2022-07-18T11:16:25;101273.61;;;27.16;51.96
50682;BME280;36779;52.168;20.878;2022-07-18T11:19:21;101278.36;;;27.29;51.80
50682;BME280;36779;52.168;20.878;2022-07-18T11:22:00;101280.75;;;27.28;51.36
50682;BME280;36779;52.168;20.878;2022-07-18T11:24:32;101276.18;;;27.15;51.30
50682;BME280;36779;52.168;20.878;2022-07-18T11:27:05;101276.45;;;27.26;51.63
50682;BME280;36779;52.168;20.878;2022-07-18T11:29:42;101272.26;;;27.51;51.51
50682;BME280;36779;52.168;20.878;2022-07-18T11:32:21;101277.60;;;27.46;50.96
50682;BME280;36779;52.168;20.878;2022-07-18T11:34:53;101278.10;;;27.10;50.33
50682;BME280;36779;52.168;20.878;2022-07-18T11:37:28;101271.38;;;26.79;50.36
50682;BME280;36779;52.168;20.878;2022-07-18T11:40:07;101265.32;;;26.57;50.44
50682;BME280;36779;52.168;20.878;2022-07-18T11:42:40;101265.98;;;26.39;50.38
50682;BME280;36779;52.168;20.878;2022-07-18T11:45:15;101266.92;;;26.14;50.15
50682;BME280;36779;52.168;20.878;2022-07-18T11:47:49;101262.71;;;25.97;50.50
50682;BME280;36779;52.168;20.878;2022-07-18T11:50:35;101259.95;;;26.06;50.88
50682;BME280;36779;52.168;20.878;2022-07-18T11:53:08;101261.18;;;26.14;50.72
50682;BME280;36779;52.168;20.878;2022-07-18T11:55:41;101256.23;;;26.09;50.55
50682;BME280;36779;52.168;20.878;2022-07-18T11:58:14;101249.45;;;25.98;50.38
50682;BME280;36779;52.168;20.878;2022-07-18T12:00:47;101245.94;;;25.91;50.46
50682;BME280;36779;52.168;20.878;2022-07-18T12:03:21;101243.14;;;25.88;50.59
50682;BME280;36779;52.168;20.878;2022-07-18T12:05:55;101234.20;;;25.82;50.41
50682;BME280;36779;52.168;20.878;2022-07-18T12:08:33;101230.45;;;25.77;50.39
50682;BME280;36779;52.168;20.878;2022-07-18T12:11:13;101232.56;;;25.60;50.28
50682;BME280;36779;52.168;20.878;2022-07-18T12:14:00;101230.09;;;25.52;50.39
50682;BME280;36779;52.168;20.878;2022-07-18T12:16:38;101227.64;;;25.42;50.41
50682;BME280;36779;52.168;20.878;2022-07-18T12:19:13;101229.69;;;25.30;50.31
50682;BME280;36779;52.168;20.878;2022-07-18T12:21:54;101225.23;;;25.14;50.31
50682;BME280;36779;52.168;20.878;2022-07-18T12:24:35;101224.36;;;25.01;50.46
50682;BME280;36779;52.168;20.878;2022-07-18T12:27:13;101220.77;;;25.15;50.96
50682;BME280;36779;52.168;20.878;2022-07-18T12:30:11;101213.80;;;25.45;51.04
50682;BME280;36779;52.168;20.878;2022-07-18T12:32:45;101216.70;;;25.72;51.05
50682;BME280;36779;52.168;20.878;2022-07-18T12:35:19;101218.61;;;25.90;51.01
50682;BME280;36779;52.168;20.878;2022-07-18T12:37:57;101216.16;;;26.20;51.03
50682;BME280;36779;52.168;20.878;2022-07-18T12:40:44;101216.20;;;26.42;50.62
50682;BME280;36779;52.168;20.878;2022-07-18T12:43:22;101218.77;;;26.32;50.06
50682;BME280;36779;52.168;20.878;2022-07-18T12:45:56;101213.98;;;26.15;50.03
50682;BME280;36779;52.168;20.878;2022-07-18T12:48:30;101209.63;;;26.04;49.94
50682;BME280;36779;52.168;20.878;2022-07-18T12:51:05;101208.79;;;25.97;49.76
50682;BME280;36779;52.168;20.878;2022-07-18T12:53:39;101209.65;;;25.78;49.62
50682;BME280;36779;52.168;20.878;2022-07-18T12:56:12;101209.13;;;25.65;49.64
50682;BME280;36779;52.168;20.878;2022-07-18T12:58:45;101207.73;;;25.53;49.52
50682;BME280;36779;52.168;20.878;2022-07-18T13:01:18;101207.86;;;25.40;49.48
50682;BME280;36779;52.168;20.878;2022-07-18T13:03:50;101207.53;;;25.23;49.47
50682;BME280;36779;52.168;20.878;2022-07-18T13:06:23;101203.33;;;25.09;49.40
50682;BME280;36779;52.168;20.878;2022-07-18T13:08:55;101191.69;;;24.94;49.50
50682;BME280;36779;52.168;20.878;2022-07-18T13:11:27;101196.48;;;24.84;49.60
50682;BME280;36779;52.168;20.878;2022-07-18T13:14:01;101195.03;;;24.94;49.87
50682;BME280;36779;52.168;20.878;2022-07-18T13:16:37;101195.14;;;25.06;49.83
50682;BME280;36779;52.168;20.878;2022-07-18T13:19:09;101188.23;;;25.21;49.99
50682;BME280;36779;52.168;20.878;2022-07-18T13:21:41;101191.34;;;25.44;50.06
50682;BME280;36779;52.168;20.878;2022-07-18T13:24:14;101196.59;;;25.60;49.91
50682;BME280;36779;52.168;20.878;2022-07-18T13:27:05;101197.03;;;25.58;49.65